createdAt,value
2019-01-19T00:00:42.709Z,8.63
2019-01-19T00:03:35.298Z,7.03
2019-01-19T00:06:36.178Z,7.10
2019-01-19T00:09:25.426Z,14.30
2019-01-19T00:12:20.363Z,7.20
2019-01-19T00:14:50.510Z,5.77
2019-01-19T00:17:36.643Z,5.23
2019-01-19T00:20:31.376Z,7.60
2019-01-19T00:23:26.782Z,10.00
2019-01-19T00:26:29.525Z,4.95
2019-01-19T00:29:15.730Z,5.13
2019-01-19T00:32:11.033Z,9.33
2019-01-19T00:35:09.128Z,5.40
2019-01-19T00:37:43.401Z,5.75
2019-01-19T00:40:41.318Z,5.00
2019-01-19T00:43:11.387Z,6.90
2019-01-19T00:46:12.859Z,9.30
2019-01-19T00:48:55.651Z,15.43
2019-01-19T00:51:56.859Z,6.10
2019-01-19T00:54:31.139Z,5.73
2019-01-19T00:57:11.115Z,8.83
2019-01-19T00:59:41.203Z,10.27
2019-01-19T01:02:41.277Z,7.40
2019-01-19T01:05:25.466Z,6.10
2019-01-19T01:08:24.891Z,10.20
2019-01-19T01:11:05.055Z,11.90
2019-01-19T01:13:48.242Z,8.73
2019-01-19T01:16:25.474Z,13.83
2019-01-19T01:19:20.139Z,4.70
2019-01-19T01:22:15.127Z,5.20
2019-01-19T01:25:07.608Z,7.50
2019-01-19T01:27:42.242Z,8.33
2019-01-19T01:30:28.876Z,8.70
2019-01-19T01:33:15.006Z,5.87
2019-01-19T01:36:13.436Z,4.20
2019-01-19T01:39:10.010Z,3.97
2019-01-19T01:41:50.128Z,11.55
2019-01-19T01:44:43.910Z,5.20
2019-01-19T01:48:08.099Z,4.85
2019-01-19T01:51:05.683Z,5.35
2019-01-19T01:53:45.876Z,4.20
2019-01-19T01:56:15.442Z,7.53
2019-01-19T01:59:04.837Z,6.13
2019-01-19T02:01:47.194Z,8.30
2019-01-19T02:04:36.820Z,6.17
2019-01-19T02:07:29.045Z,18.40
2019-01-19T02:10:25.938Z,22.57
2019-01-19T02:13:23.983Z,9.13
2019-01-19T02:16:16.611Z,6.30
2019-01-19T02:19:08.520Z,11.20
2019-01-19T02:21:57.808Z,4.10
2019-01-19T02:25:02.373Z,6.80
2019-01-19T02:27:54.483Z,4.20
2019-01-19T02:31:00.551Z,6.83
2019-01-19T02:33:40.421Z,4.57
2019-01-19T02:36:28.859Z,5.00
2019-01-19T02:39:14.891Z,6.20
2019-01-19T02:42:07.370Z,6.40
2019-01-19T02:44:44.451Z,8.10
2019-01-19T02:47:48.613Z,5.50
2019-01-19T02:50:25.603Z,4.50
2019-01-19T02:53:08.560Z,6.20
2019-01-19T02:55:48.889Z,17.03
2019-01-19T02:58:26.076Z,5.60
2019-01-19T03:01:30.293Z,5.40
2019-01-19T03:04:10.306Z,4.27
2019-01-19T03:07:24.144Z,4.70
2019-01-19T03:10:13.586Z,5.00
2019-01-19T03:13:05.655Z,10.10
2019-01-19T03:15:55.133Z,13.30
2019-01-19T03:18:56.503Z,5.30
2019-01-19T03:21:53.316Z,6.73
2019-01-19T03:24:43.775Z,7.10
2019-01-19T03:27:34.461Z,4.30
2019-01-19T03:30:23.315Z,5.10
2019-01-19T03:33:11.764Z,7.23
2019-01-19T03:35:48.482Z,6.77
2019-01-19T03:38:44.330Z,8.80
2019-01-19T03:41:40.223Z,3.87
2019-01-19T03:44:25.871Z,7.73
2019-01-19T03:47:16.550Z,5.07
2019-01-19T03:50:30.581Z,4.43
2019-01-19T03:53:29.057Z,8.43
2019-01-19T03:56:15.090Z,10.20
2019-01-19T03:58:55.141Z,5.77
2019-01-19T04:01:34.546Z,7.77
2019-01-19T04:04:30.009Z,5.13
2019-01-19T04:07:22.327Z,7.00
2019-01-19T04:10:20.508Z,7.80
2019-01-19T04:13:18.371Z,8.30
2019-01-19T04:16:01.334Z,7.90
2019-01-19T04:18:35.565Z,11.00
2019-01-19T04:21:24.398Z,4.40
2019-01-19T04:23:59.294Z,5.27
2019-01-19T04:26:33.308Z,7.10
2019-01-19T04:29:02.818Z,4.53
2019-01-19T04:31:32.459Z,4.07
2019-01-19T04:34:02.537Z,4.63
2019-01-19T04:36:32.202Z,3.75
2019-01-19T04:39:03.381Z,6.27
2019-01-19T04:41:32.875Z,6.13
2019-01-19T04:44:02.391Z,4.67
2019-01-19T04:46:31.895Z,3.90
2019-01-19T04:49:01.710Z,5.10
2019-01-19T04:51:31.214Z,6.87
2019-01-19T04:54:00.718Z,9.33
2019-01-19T04:56:30.237Z,4.80
2019-01-19T04:58:59.735Z,5.10
2019-01-19T05:01:29.400Z,10.00
2019-01-19T05:03:58.906Z,10.20
2019-01-19T05:06:30.630Z,5.17
2019-01-19T05:08:59.975Z,6.33
2019-01-19T05:11:29.482Z,15.37
2019-01-19T05:13:59.018Z,15.40
2019-01-19T05:16:28.565Z,5.10
2019-01-19T05:18:58.021Z,9.80
2019-01-19T05:21:27.927Z,5.27
2019-01-19T05:23:57.521Z,10.30
2019-01-19T05:26:27.032Z,10.00
2019-01-19T05:28:56.551Z,12.60
2019-01-19T05:31:26.159Z,12.00
2019-01-19T05:33:55.677Z,10.47
2019-01-19T05:36:25.190Z,6.53
2019-01-19T05:38:54.708Z,12.40
2019-01-19T05:41:24.219Z,7.37
2019-01-19T05:43:53.755Z,12.00
2019-01-19T05:46:23.275Z,14.97
2019-01-19T05:48:52.807Z,13.60
2019-01-19T05:51:22.322Z,8.40
2019-01-19T05:53:51.840Z,10.77
2019-01-19T05:56:21.370Z,8.70
2019-01-19T05:58:50.890Z,7.60
2019-01-19T06:01:21.198Z,10.90
2019-01-19T06:03:50.723Z,30.13
2019-01-19T06:06:20.624Z,10.10
2019-01-19T06:08:50.145Z,9.55
2019-01-19T06:11:19.714Z,14.13
2019-01-19T06:13:49.183Z,9.20
2019-01-19T06:16:18.712Z,12.25
2019-01-19T06:18:48.916Z,11.87
2019-01-19T06:21:19.599Z,9.20
2019-01-19T06:23:49.147Z,20.65
2019-01-19T06:26:18.640Z,9.70
2019-01-19T06:28:48.157Z,17.73
2019-01-19T06:31:17.692Z,16.30
2019-01-19T06:33:47.202Z,10.83
2019-01-19T06:36:16.736Z,11.50
2019-01-19T06:38:46.270Z,15.40
2019-01-19T06:41:16.201Z,13.43
2019-01-19T06:43:45.706Z,8.47
2019-01-19T06:46:15.230Z,11.40
2019-01-19T06:48:44.769Z,10.70
2019-01-19T06:51:14.275Z,15.20
2019-01-19T06:53:43.871Z,10.00
2019-01-19T06:56:13.381Z,18.23
2019-01-19T06:58:42.909Z,14.67
2019-01-19T07:01:14.080Z,11.73
2019-01-19T07:03:43.612Z,14.77
2019-01-19T07:06:13.128Z,15.53
2019-01-19T07:08:42.641Z,13.95
2019-01-19T07:11:12.169Z,15.03
2019-01-19T07:13:41.692Z,12.33
2019-01-19T07:16:11.297Z,21.25
2019-01-19T07:18:40.816Z,13.55
2019-01-19T07:21:10.440Z,16.67
2019-01-19T07:23:39.962Z,21.45
2019-01-19T07:26:09.474Z,12.97
2019-01-19T07:28:39.580Z,16.15
2019-01-19T07:31:09.108Z,11.57
2019-01-19T07:33:38.610Z,13.60
2019-01-19T07:36:08.156Z,20.80
2019-01-19T07:38:37.681Z,16.07
2019-01-19T07:41:07.202Z,16.77
2019-01-19T07:43:36.808Z,17.00
2019-01-19T07:46:08.123Z,12.67
2019-01-19T07:48:37.644Z,13.27
2019-01-19T07:51:07.179Z,19.17
2019-01-19T07:53:36.688Z,14.27
2019-01-19T07:56:06.364Z,17.00
2019-01-19T07:58:35.898Z,16.63
2019-01-19T08:01:05.574Z,21.20
2019-01-19T08:03:35.363Z,20.83
2019-01-19T08:06:04.886Z,14.87
2019-01-19T08:08:34.410Z,13.50
2019-01-19T08:11:03.976Z,17.60
2019-01-19T08:13:33.495Z,13.90
2019-01-19T08:16:03.148Z,18.73
2019-01-19T08:18:32.654Z,22.43
2019-01-19T08:21:02.160Z,19.80
2019-01-19T08:23:31.691Z,16.70
2019-01-19T08:26:01.203Z,20.37
2019-01-19T08:28:31.077Z,24.70
2019-01-19T08:31:00.591Z,18.63
2019-01-19T08:33:30.097Z,14.50
2019-01-19T08:35:59.927Z,17.30
2019-01-19T08:38:29.493Z,17.47
2019-01-19T08:40:59.025Z,20.00
2019-01-19T08:43:30.182Z,14.53
2019-01-19T08:45:59.699Z,16.67
2019-01-19T08:48:29.536Z,15.85
2019-01-19T08:50:59.033Z,16.93
2019-01-19T08:53:28.565Z,24.57
2019-01-19T08:55:58.099Z,14.13
2019-01-19T08:58:27.715Z,17.03
2019-01-19T09:00:57.235Z,14.77
2019-01-19T09:03:26.747Z,15.10
2019-01-19T09:05:56.541Z,14.97
2019-01-19T09:08:26.062Z,15.20
2019-01-19T09:10:55.579Z,23.77
2019-01-19T09:13:25.187Z,14.25
2019-01-19T09:15:56.419Z,29.10
2019-01-19T09:18:25.956Z,16.27
2019-01-19T09:20:55.478Z,18.30
2019-01-19T09:23:26.648Z,16.53
2019-01-19T09:25:56.180Z,17.10
2019-01-19T09:28:25.708Z,23.47
2019-01-19T09:30:55.321Z,18.47
2019-01-19T09:33:24.832Z,23.03
2019-01-19T09:35:54.395Z,17.50
2019-01-19T09:38:23.899Z,22.83
2019-01-19T09:40:53.418Z,20.87
2019-01-19T09:43:22.951Z,19.80
2019-01-19T09:45:52.467Z,16.53
2019-01-19T09:48:22.079Z,19.90
2019-01-19T09:50:51.664Z,26.43
2019-01-19T09:53:21.202Z,20.53
2019-01-19T09:55:50.745Z,26.83
2019-01-19T09:58:20.265Z,21.75
2019-01-19T10:00:49.795Z,20.90
2019-01-19T10:03:19.321Z,21.07
2019-01-19T10:05:48.931Z,19.30
2019-01-19T10:08:18.483Z,27.90
2019-01-19T10:10:48.290Z,24.35
2019-01-19T10:13:17.876Z,25.60
2019-01-19T10:15:47.423Z,27.60
2019-01-19T10:18:17.539Z,25.30
2019-01-19T10:20:47.064Z,22.53
2019-01-19T10:23:16.611Z,26.53
2019-01-19T10:25:46.125Z,22.17
2019-01-19T10:28:15.664Z,28.23
2019-01-19T10:30:45.421Z,27.53
2019-01-19T10:33:14.941Z,22.40
2019-01-19T10:35:44.466Z,28.37
2019-01-19T10:38:13.985Z,31.53
2019-01-19T10:40:43.517Z,28.67
2019-01-19T10:43:13.029Z,19.17
2019-01-19T10:45:42.534Z,23.97
2019-01-19T10:48:12.065Z,29.70
2019-01-19T10:50:41.578Z,23.73
2019-01-19T10:53:11.100Z,25.33
2019-01-19T10:55:40.684Z,23.90
2019-01-19T10:58:10.620Z,23.00
2019-01-19T11:00:40.130Z,51.07
2019-01-19T11:03:09.711Z,24.30
2019-01-19T11:05:39.265Z,28.57
2019-01-19T11:08:10.687Z,28.13
2019-01-19T11:10:40.450Z,31.80
2019-01-19T11:13:09.963Z,28.40
2019-01-19T11:15:39.728Z,30.85
2019-01-19T11:18:09.237Z,26.53
2019-01-19T11:20:38.749Z,27.57
2019-01-19T11:23:08.287Z,34.47
2019-01-19T11:25:37.791Z,27.63
2019-01-19T11:28:07.468Z,30.35
2019-01-19T11:30:37.021Z,24.27
2019-01-19T11:33:06.602Z,30.60
2019-01-19T11:35:36.111Z,23.60
2019-01-19T11:38:11.804Z,26.70
2019-01-19T11:40:38.385Z,33.45
2019-01-19T11:43:09.141Z,26.45
2019-01-19T11:45:38.735Z,22.23
2019-01-19T11:48:08.319Z,22.57
2019-01-19T11:50:37.852Z,24.73
2019-01-19T11:53:07.366Z,33.37
2019-01-19T11:55:36.956Z,28.97
2019-01-19T11:58:06.725Z,20.35
2019-01-19T12:00:39.039Z,26.47
2019-01-19T12:03:09.099Z,26.37
2019-01-19T12:05:39.781Z,25.70
2019-01-19T12:08:10.107Z,24.73
2019-01-19T12:10:39.625Z,20.17
2019-01-19T12:13:09.220Z,22.00
2019-01-19T12:15:38.806Z,24.53
2019-01-19T12:18:08.592Z,28.00
2019-01-19T12:20:43.545Z,23.30
2019-01-19T12:23:13.063Z,29.03
2019-01-19T12:25:42.824Z,30.60
2019-01-19T12:28:12.347Z,21.30
2019-01-19T12:30:42.003Z,26.90
2019-01-19T12:33:11.587Z,24.10
2019-01-19T12:35:41.118Z,20.27
2019-01-19T12:38:10.630Z,32.70
2019-01-19T12:40:40.214Z,27.75
2019-01-19T12:43:14.321Z,29.80
2019-01-19T12:45:52.897Z,20.37
2019-01-19T12:48:22.926Z,21.93
2019-01-19T12:50:52.493Z,20.37
2019-01-19T12:53:22.689Z,27.27
2019-01-19T12:55:52.213Z,24.60
2019-01-19T12:58:21.799Z,23.90
2019-01-19T13:00:51.326Z,27.50
2019-01-19T13:03:20.835Z,18.17
2019-01-19T13:06:16.106Z,21.63
2019-01-19T13:08:45.856Z,22.43
2019-01-19T13:11:29.006Z,21.30
2019-01-19T13:14:03.259Z,25.00
2019-01-19T13:16:58.189Z,24.80
2019-01-19T13:19:41.436Z,20.07
2019-01-19T13:22:24.457Z,23.87
2019-01-19T13:25:13.717Z,26.60
2019-01-19T13:28:07.363Z,26.90
2019-01-19T13:31:08.109Z,32.67
2019-01-19T13:34:17.443Z,21.33
2019-01-19T13:36:51.657Z,28.90
2019-01-19T13:39:40.022Z,35.45
2019-01-19T13:42:25.547Z,31.83
2019-01-19T13:45:11.270Z,23.77
2019-01-19T13:48:11.999Z,23.33
2019-01-19T13:50:54.525Z,23.97
2019-01-19T13:53:55.286Z,24.13
2019-01-19T13:56:40.810Z,24.50
2019-01-19T13:59:31.551Z,32.83
2019-01-19T14:02:36.299Z,21.07
2019-01-19T14:05:41.050Z,19.30
2019-01-19T14:08:37.645Z,24.90
2019-01-19T14:11:14.618Z,30.93
2019-01-19T14:14:40.584Z,22.13
2019-01-19T14:17:29.026Z,27.05
2019-01-19T14:20:11.767Z,22.53
2019-01-19T14:23:03.188Z,22.43
2019-01-19T14:25:49.434Z,22.63
2019-01-19T14:28:35.589Z,25.60
2019-01-19T14:31:49.486Z,27.35
2019-01-19T14:34:23.721Z,23.90
2019-01-19T14:37:17.350Z,27.20
2019-01-19T14:40:03.307Z,28.67
2019-01-19T14:42:52.402Z,26.00
2019-01-19T14:45:50.690Z,22.57
2019-01-19T14:48:30.541Z,26.50
2019-01-19T14:51:28.941Z,24.00
2019-01-19T14:54:21.537Z,24.80
2019-01-19T14:57:19.351Z,22.10
2019-01-19T15:00:18.958Z,23.75
2019-01-19T15:02:58.745Z,30.17
2019-01-19T15:05:38.434Z,35.60
2019-01-19T15:08:15.511Z,34.15
2019-01-19T15:11:01.753Z,25.57
2019-01-19T15:13:47.907Z,27.50
2019-01-19T15:17:00.139Z,31.47
2019-01-19T15:19:56.903Z,28.53
2019-01-19T15:22:54.634Z,28.57
2019-01-19T15:25:54.200Z,30.00
2019-01-19T15:28:46.536Z,31.90
2019-01-19T15:31:35.712Z,27.70
2019-01-19T15:34:29.141Z,35.00
2019-01-19T15:37:24.561Z,35.10
2019-01-19T15:40:01.625Z,34.67
2019-01-19T15:42:47.482Z,33.93
2019-01-19T15:45:33.388Z,29.30
2019-01-19T15:48:19.177Z,36.85
2019-01-19T15:51:11.437Z,31.10
2019-01-19T15:54:16.081Z,30.63
2019-01-19T15:57:17.590Z,35.93
2019-01-19T16:00:11.140Z,30.53
2019-01-19T16:02:45.760Z,39.87
2019-01-19T16:05:31.188Z,31.75
2019-01-19T16:08:26.484Z,34.40
2019-01-19T16:11:24.337Z,34.20
2019-01-19T16:14:18.015Z,44.70
2019-01-19T16:17:00.535Z,31.10
2019-01-19T16:19:50.034Z,40.37
2019-01-19T16:22:33.267Z,41.50
2019-01-19T16:25:34.447Z,35.65
2019-01-19T16:28:17.416Z,36.43
2019-01-19T16:31:19.568Z,40.73
2019-01-19T16:34:02.412Z,35.43
2019-01-19T16:36:39.292Z,27.93
2019-01-19T16:39:28.167Z,31.13
2019-01-19T16:42:11.580Z,52.63
2019-01-19T16:45:26.947Z,36.87
2019-01-19T16:48:04.018Z,34.77
2019-01-19T16:50:44.950Z,41.13
2019-01-19T16:53:34.245Z,35.00
2019-01-19T16:56:33.808Z,38.10
2019-01-19T16:59:39.666Z,29.03
2019-01-19T17:02:19.457Z,28.80
2019-01-19T17:04:56.373Z,38.50
2019-01-19T17:08:06.906Z,30.17
2019-01-19T17:11:03.610Z,21.47
2019-01-19T17:13:52.837Z,30.47
2019-01-19T17:16:57.531Z,30.87
2019-01-19T17:19:34.493Z,40.40
2019-01-19T17:22:19.453Z,30.30
2019-01-19T17:25:05.461Z,30.57
2019-01-19T17:28:14.667Z,26.13
2019-01-19T17:31:12.976Z,44.33
2019-01-19T17:34:05.294Z,30.70
2019-01-19T17:36:54.504Z,29.13
2019-01-19T17:39:40.593Z,47.37
2019-01-19T17:42:37.845Z,32.75
2019-01-19T17:45:26.894Z,37.00
2019-01-19T17:48:12.902Z,55.10
2019-01-19T17:51:12.786Z,40.60
2019-01-19T17:53:55.712Z,33.90
2019-01-19T17:56:41.795Z,32.05
2019-01-19T17:59:24.276Z,42.33
2019-01-19T18:02:27.596Z,33.17
2019-01-19T18:05:20.890Z,27.53
2019-01-19T18:08:22.186Z,38.63
2019-01-19T18:11:02.166Z,29.70
2019-01-19T18:13:58.593Z,35.07
2019-01-19T18:17:10.769Z,34.50
2019-01-19T18:19:56.592Z,32.87
2019-01-19T18:23:01.217Z,35.70
2019-01-19T18:26:18.244Z,41.20
2019-01-19T18:29:02.026Z,35.33
2019-01-19T18:31:54.370Z,39.50
2019-01-19T18:34:43.045Z,33.60
2019-01-19T18:37:36.669Z,39.15
2019-01-19T18:40:33.658Z,34.60
2019-01-19T18:43:35.973Z,29.20
2019-01-19T18:46:32.866Z,30.43
2019-01-19T18:49:18.740Z,36.90
2019-01-19T18:52:13.476Z,33.93
2019-01-19T18:55:01.832Z,38.60
2019-01-19T18:58:02.751Z,32.50
2019-01-19T19:00:48.598Z,28.10
2019-01-19T19:03:45.361Z,27.07
2019-01-19T19:06:41.551Z,36.87
2019-01-19T19:09:36.819Z,25.50
2019-01-19T19:12:35.371Z,33.00
2019-01-19T19:15:27.090Z,30.10
2019-01-19T19:18:07.132Z,26.70
2019-01-19T19:20:57.816Z,29.97
2019-01-19T19:24:00.808Z,38.13
2019-01-19T19:26:52.788Z,24.73
2019-01-19T19:29:45.016Z,23.57
2019-01-19T19:32:43.162Z,28.60
2019-01-19T19:35:38.691Z,31.03
2019-01-19T19:38:50.440Z,30.20
2019-01-19T19:41:59.175Z,28.33
2019-01-19T19:44:44.417Z,37.40
2019-01-19T19:47:39.734Z,33.75
2019-01-19T19:50:39.955Z,36.80
2019-01-19T19:53:09.642Z,30.95
2019-01-19T19:55:37.577Z,36.25
2019-01-19T19:58:07.170Z,32.50
2019-01-19T20:00:36.778Z,31.77
2019-01-19T20:03:06.736Z,28.50
2019-01-19T20:05:36.329Z,30.57
2019-01-19T20:08:05.946Z,29.50
2019-01-19T20:10:35.473Z,26.67
2019-01-19T20:13:05.200Z,33.50
2019-01-19T20:15:34.739Z,34.65
2019-01-19T20:18:04.404Z,23.40
2019-01-19T20:20:33.924Z,40.27
2019-01-19T20:23:03.484Z,28.85
2019-01-19T20:25:33.016Z,33.10
2019-01-19T20:28:02.540Z,35.37
2019-01-19T20:30:32.217Z,21.75
2019-01-19T20:33:01.734Z,37.95
2019-01-19T20:35:31.251Z,28.37
2019-01-19T20:38:00.788Z,25.05
2019-01-19T20:40:30.305Z,33.30
2019-01-19T20:42:59.832Z,39.70
2019-01-19T20:45:29.387Z,31.55
2019-01-19T20:47:58.904Z,35.50
2019-01-19T20:50:28.430Z,37.50
2019-01-19T20:52:57.970Z,39.90
2019-01-19T20:55:27.491Z,53.15
2019-01-19T20:57:57.095Z,41.50
2019-01-19T21:00:26.742Z,43.10
2019-01-19T21:02:56.277Z,34.45
2019-01-19T21:05:25.802Z,24.35
2019-01-19T21:07:55.385Z,28.60
2019-01-19T21:10:31.552Z,27.50
2019-01-19T21:12:56.171Z,25.55
2019-01-19T21:15:25.719Z,26.40
2019-01-19T21:17:55.820Z,30.30
2019-01-19T21:20:25.540Z,33.10
2019-01-19T21:22:55.086Z,35.43
2019-01-19T21:25:24.620Z,33.77
2019-01-19T21:27:54.139Z,28.45
2019-01-19T21:30:23.682Z,26.00
2019-01-19T21:32:53.209Z,29.40
2019-01-19T21:35:22.734Z,36.30
2019-01-19T21:37:52.498Z,32.80
2019-01-19T21:40:22.021Z,25.80
2019-01-19T21:42:51.575Z,31.70
2019-01-19T21:45:22.597Z,33.60
2019-01-19T21:47:52.127Z,28.50
2019-01-19T21:50:21.665Z,40.47
2019-01-19T21:52:51.219Z,35.70
2019-01-19T21:55:20.798Z,44.57
2019-01-19T21:57:50.332Z,54.93
2019-01-19T22:00:22.025Z,50.23
2019-01-19T22:02:51.556Z,37.17
2019-01-19T22:05:21.265Z,35.83
2019-01-19T22:07:50.805Z,41.53
2019-01-19T22:10:23.097Z,34.03
2019-01-19T22:12:52.620Z,27.77
2019-01-19T22:15:22.233Z,34.37
2019-01-19T22:17:51.759Z,23.30
2019-01-19T22:20:21.278Z,26.07
2019-01-19T22:22:50.911Z,32.33
2019-01-19T22:25:20.431Z,27.33
2019-01-19T22:27:50.219Z,30.93
2019-01-19T22:30:26.484Z,27.90
2019-01-19T22:32:56.281Z,24.27
2019-01-19T22:35:27.705Z,28.40
2019-01-19T22:37:57.674Z,39.57
2019-01-19T22:40:27.194Z,40.33
2019-01-19T22:42:56.951Z,33.93
2019-01-19T22:45:26.499Z,32.80
2019-01-19T22:47:56.029Z,32.30
2019-01-19T22:50:25.557Z,29.67
2019-01-19T22:52:55.219Z,29.93
2019-01-19T22:55:24.746Z,29.70
2019-01-19T22:57:54.443Z,32.93
2019-01-19T23:00:59.777Z,38.60
2019-01-19T23:03:31.920Z,34.90
2019-01-19T23:06:01.499Z,28.60
2019-01-19T23:08:31.066Z,36.67
2019-01-19T23:11:01.318Z,30.40
2019-01-19T23:13:30.993Z,45.20
2019-01-19T23:16:00.625Z,33.97
2019-01-19T23:18:30.142Z,29.70
2019-01-19T23:20:59.666Z,32.33
2019-01-19T23:23:29.564Z,28.13
2019-01-19T23:26:00.725Z,32.67
2019-01-19T23:28:30.244Z,38.13
2019-01-19T23:31:00.000Z,38.23
2019-01-19T23:33:29.522Z,36.03
2019-01-19T23:35:59.040Z,37.50
2019-01-19T23:38:28.990Z,38.13
2019-01-19T23:40:58.520Z,37.40
2019-01-19T23:43:28.053Z,36.20
2019-01-19T23:45:57.589Z,42.07
2019-01-19T23:48:27.146Z,42.90
2019-01-19T23:50:56.664Z,40.30
2019-01-19T23:53:26.229Z,41.60
2019-01-19T23:55:55.778Z,37.50
2019-01-19T23:58:25.317Z,35.73
